sensor_id;sensor_type;location;lat;lon;timestamp;P1;durP1;ratioP1;P2;durP2;ratioP2
55728;SDS011;41633;39.720;2.910;2023-08-20T00:00:30;20.05;;;11.38;;
55728;SDS011;41633;39.720;2.910;2023-08-20T00:03:03;20.35;;;11.82;;
55728;SDS011;41633;39.720;2.910;2023-08-20T00:05:30;20.80;;;12.85;;
55728;SDS011;41633;39.720;2.910;2023-08-20T00:07:56;22.90;;;13.15;;
55728;SDS011;41633;39.720;2.910;2023-08-20T00:10:22;22.88;;;13.45;;
55728;SDS011;41633;39.720;2.910;2023-08-20T00:12:48;21.13;;;13.15;;
55728;SDS011;41633;39.720;2.910;2023-08-20T00:15:15;17.67;;;9.68;;
55728;SDS011;41633;39.720;2.910;2023-08-20T00:17:41;19.02;;;9.98;;
55728;SDS011;41633;39.720;2.910;2023-08-20T00:20:08;19.60;;;10.23;;
55728;SDS011;41633;39.720;2.910;2023-08-20T00:22:38;19.90;;;11.25;;
55728;SDS011;41633;39.720;2.910;2023-08-20T00:25:04;19.50;;;11.52;;
55728;SDS011;41633;39.720;2.910;2023-08-20T00:27:31;22.50;;;11.80;;
55728;SDS011;41633;39.720;2.910;2023-08-20T00:29:57;20.42;;;12.60;;
55728;SDS011;41633;39.720;2.910;2023-08-20T00:32:24;21.63;;;12.98;;
55728;SDS011;41633;39.720;2.910;2023-08-20T00:34:50;21.55;;;12.02;;
55728;SDS011;41633;39.720;2.910;2023-08-20T00:37:16;23.33;;;12.05;;
55728;SDS011;41633;39.720;2.910;2023-08-20T00:39:42;22.13;;;11.75;;
55728;SDS011;41633;39.720;2.910;2023-08-20T00:42:08;21.80;;;11.02;;
55728;SDS011;41633;39.720;2.910;2023-08-20T00:44:34;22.77;;;10.73;;
55728;SDS011;41633;39.720;2.910;2023-08-20T00:47:01;17.38;;;10.13;;
55728;SDS011;41633;39.720;2.910;2023-08-20T00:49:28;21.80;;;10.75;;
55728;SDS011;41633;39.720;2.910;2023-08-20T00:51:54;19.88;;;10.25;;
55728;SDS011;41633;39.720;2.910;2023-08-20T00:54:21;15.65;;;7.93;;
55728;SDS011;41633;39.720;2.910;2023-08-20T00:56:48;17.60;;;8.65;;
55728;SDS011;41633;39.720;2.910;2023-08-20T00:59:15;19.02;;;7.95;;
55728;SDS011;41633;39.720;2.910;2023-08-20T01:01:42;20.02;;;9.18;;
55728;SDS011;41633;39.720;2.910;2023-08-20T01:04:08;17.83;;;8.70;;
55728;SDS011;41633;39.720;2.910;2023-08-20T01:09:05;19.85;;;11.30;;
55728;SDS011;41633;39.720;2.910;2023-08-20T01:11:37;18.70;;;11.43;;
55728;SDS011;41633;39.720;2.910;2023-08-20T01:14:14;17.25;;;11.43;;
55728;SDS011;41633;39.720;2.910;2023-08-20T01:16:41;21.50;;;12.07;;
55728;SDS011;41633;39.720;2.910;2023-08-20T01:19:07;22.23;;;13.50;;
55728;SDS011;41633;39.720;2.910;2023-08-20T01:21:39;24.08;;;13.23;;
55728;SDS011;41633;39.720;2.910;2023-08-20T01:26:53;21.23;;;12.40;;
55728;SDS011;41633;39.720;2.910;2023-08-20T01:29:22;18.95;;;13.05;;
55728;SDS011;41633;39.720;2.910;2023-08-20T01:31:48;23.90;;;12.98;;
55728;SDS011;41633;39.720;2.910;2023-08-20T01:34:15;19.50;;;13.15;;
55728;SDS011;41633;39.720;2.910;2023-08-20T01:36:41;21.65;;;13.40;;
55728;SDS011;41633;39.720;2.910;2023-08-20T01:39:07;18.92;;;12.85;;
55728;SDS011;41633;39.720;2.910;2023-08-20T01:41:33;20.67;;;12.82;;
55728;SDS011;41633;39.720;2.910;2023-08-20T01:43:59;23.35;;;13.48;;
55728;SDS011;41633;39.720;2.910;2023-08-20T01:46:26;19.45;;;11.65;;
55728;SDS011;41633;39.720;2.910;2023-08-20T01:48:52;20.95;;;12.80;;
55728;SDS011;41633;39.720;2.910;2023-08-20T01:51:18;19.48;;;12.75;;
55728;SDS011;41633;39.720;2.910;2023-08-20T01:53:44;20.05;;;11.65;;
55728;SDS011;41633;39.720;2.910;2023-08-20T01:56:11;20.25;;;11.27;;
55728;SDS011;41633;39.720;2.910;2023-08-20T01:58:38;21.15;;;10.45;;
55728;SDS011;41633;39.720;2.910;2023-08-20T02:01:04;20.98;;;10.23;;
55728;SDS011;41633;39.720;2.910;2023-08-20T02:03:30;19.15;;;11.20;;
55728;SDS011;41633;39.720;2.910;2023-08-20T02:05:57;18.02;;;10.63;;
55728;SDS011;41633;39.720;2.910;2023-08-20T02:08:23;19.75;;;11.10;;
55728;SDS011;41633;39.720;2.910;2023-08-20T02:10:49;17.65;;;9.75;;
55728;SDS011;41633;39.720;2.910;2023-08-20T02:13:15;18.05;;;9.88;;
55728;SDS011;41633;39.720;2.910;2023-08-20T02:15:41;21.08;;;11.93;;
55728;SDS011;41633;39.720;2.910;2023-08-20T02:18:07;19.98;;;13.23;;
55728;SDS011;41633;39.720;2.910;2023-08-20T02:20:33;26.08;;;13.38;;
55728;SDS011;41633;39.720;2.910;2023-08-20T02:23:00;20.40;;;10.52;;
55728;SDS011;41633;39.720;2.910;2023-08-20T02:25:26;18.48;;;11.07;;
55728;SDS011;41633;39.720;2.910;2023-08-20T02:27:52;20.52;;;9.85;;
55728;SDS011;41633;39.720;2.910;2023-08-20T02:30:18;20.25;;;9.75;;
55728;SDS011;41633;39.720;2.910;2023-08-20T02:32:44;18.48;;;9.60;;
55728;SDS011;41633;39.720;2.910;2023-08-20T02:35:11;21.08;;;9.77;;
55728;SDS011;41633;39.720;2.910;2023-08-20T02:37:40;19.52;;;9.40;;
55728;SDS011;41633;39.720;2.910;2023-08-20T02:40:06;15.30;;;8.43;;
55728;SDS011;41633;39.720;2.910;2023-08-20T02:42:33;17.77;;;9.52;;
55728;SDS011;41633;39.720;2.910;2023-08-20T02:44:59;17.48;;;9.93;;
55728;SDS011;41633;39.720;2.910;2023-08-20T02:47:26;20.45;;;9.52;;
55728;SDS011;41633;39.720;2.910;2023-08-20T02:49:52;20.50;;;9.80;;
55728;SDS011;41633;39.720;2.910;2023-08-20T02:52:18;18.55;;;9.90;;
55728;SDS011;41633;39.720;2.910;2023-08-20T02:54:44;18.13;;;10.98;;
55728;SDS011;41633;39.720;2.910;2023-08-20T02:57:10;17.70;;;10.13;;
55728;SDS011;41633;39.720;2.910;2023-08-20T02:59:36;19.23;;;9.60;;
55728;SDS011;41633;39.720;2.910;2023-08-20T03:02:02;16.35;;;9.63;;
55728;SDS011;41633;39.720;2.910;2023-08-20T03:04:29;18.80;;;10.85;;
55728;SDS011;41633;39.720;2.910;2023-08-20T03:06:55;23.02;;;11.18;;
55728;SDS011;41633;39.720;2.910;2023-08-20T03:09:21;18.38;;;9.90;;
55728;SDS011;41633;39.720;2.910;2023-08-20T03:11:47;22.25;;;10.23;;
55728;SDS011;41633;39.720;2.910;2023-08-20T03:14:14;15.73;;;9.23;;
55728;SDS011;41633;39.720;2.910;2023-08-20T03:16:40;22.48;;;10.95;;
55728;SDS011;41633;39.720;2.910;2023-08-20T03:19:06;19.08;;;10.27;;
55728;SDS011;41633;39.720;2.910;2023-08-20T03:21:33;17.55;;;10.77;;
55728;SDS011;41633;39.720;2.910;2023-08-20T03:23:59;20.67;;;11.07;;
55728;SDS011;41633;39.720;2.910;2023-08-20T03:26:25;20.10;;;11.15;;
55728;SDS011;41633;39.720;2.910;2023-08-20T03:28:51;22.65;;;11.20;;
55728;SDS011;41633;39.720;2.910;2023-08-20T03:31:18;21.75;;;11.35;;
55728;SDS011;41633;39.720;2.910;2023-08-20T03:33:44;21.15;;;10.68;;
55728;SDS011;41633;39.720;2.910;2023-08-20T03:36:10;21.50;;;10.60;;
55728;SDS011;41633;39.720;2.910;2023-08-20T03:38:36;17.52;;;9.20;;
55728;SDS011;41633;39.720;2.910;2023-08-20T03:41:02;17.52;;;9.00;;
55728;SDS011;41633;39.720;2.910;2023-08-20T03:43:28;15.30;;;8.43;;
55728;SDS011;41633;39.720;2.910;2023-08-20T03:45:54;16.67;;;8.98;;
55728;SDS011;41633;39.720;2.910;2023-08-20T03:48:20;18.90;;;8.77;;
55728;SDS011;41633;39.720;2.910;2023-08-20T03:50:47;18.30;;;8.23;;
55728;SDS011;41633;39.720;2.910;2023-08-20T03:53:13;18.42;;;8.80;;
55728;SDS011;41633;39.720;2.910;2023-08-20T03:55:39;17.83;;;7.95;;
55728;SDS011;41633;39.720;2.910;2023-08-20T03:58:05;13.57;;;7.60;;
55728;SDS011;41633;39.720;2.910;2023-08-20T04:00:31;15.50;;;7.75;;
55728;SDS011;41633;39.720;2.910;2023-08-20T04:02:58;15.07;;;7.25;;
55728;SDS011;41633;39.720;2.910;2023-08-20T04:05:24;16.60;;;7.30;;
55728;SDS011;41633;39.720;2.910;2023-08-20T04:07:50;12.15;;;6.63;;
55728;SDS011;41633;39.720;2.910;2023-08-20T04:10:16;16.30;;;7.03;;
55728;SDS011;41633;39.720;2.910;2023-08-20T04:12:42;15.18;;;7.03;;
55728;SDS011;41633;39.720;2.910;2023-08-20T04:15:09;14.13;;;6.53;;
55728;SDS011;41633;39.720;2.910;2023-08-20T04:17:35;15.55;;;6.55;;
55728;SDS011;41633;39.720;2.910;2023-08-20T04:20:01;14.88;;;6.22;;
55728;SDS011;41633;39.720;2.910;2023-08-20T04:22:30;16.15;;;6.47;;
55728;SDS011;41633;39.720;2.910;2023-08-20T04:24:56;13.52;;;6.32;;
55728;SDS011;41633;39.720;2.910;2023-08-20T04:27:22;13.75;;;6.18;;
55728;SDS011;41633;39.720;2.910;2023-08-20T04:29:51;14.60;;;5.90;;
55728;SDS011;41633;39.720;2.910;2023-08-20T04:32:17;14.30;;;6.25;;
55728;SDS011;41633;39.720;2.910;2023-08-20T04:34:44;14.98;;;6.70;;
55728;SDS011;41633;39.720;2.910;2023-08-20T04:37:11;13.77;;;6.25;;
55728;SDS011;41633;39.720;2.910;2023-08-20T04:39:41;15.80;;;6.15;;
55728;SDS011;41633;39.720;2.910;2023-08-20T04:42:07;14.45;;;6.50;;
55728;SDS011;41633;39.720;2.910;2023-08-20T04:44:33;17.10;;;6.53;;
55728;SDS011;41633;39.720;2.910;2023-08-20T04:46:59;17.30;;;7.00;;
55728;SDS011;41633;39.720;2.910;2023-08-20T04:49:26;16.50;;;6.65;;
55728;SDS011;41633;39.720;2.910;2023-08-20T04:51:54;13.68;;;6.43;;
55728;SDS011;41633;39.720;2.910;2023-08-20T04:54:20;15.20;;;6.68;;
55728;SDS011;41633;39.720;2.910;2023-08-20T04:56:50;14.52;;;6.43;;
55728;SDS011;41633;39.720;2.910;2023-08-20T04:59:16;12.40;;;6.75;;
55728;SDS011;41633;39.720;2.910;2023-08-20T05:01:42;13.73;;;7.20;;
55728;SDS011;41633;39.720;2.910;2023-08-20T05:04:11;15.27;;;7.50;;
55728;SDS011;41633;39.720;2.910;2023-08-20T05:06:37;14.55;;;7.25;;
55728;SDS011;41633;39.720;2.910;2023-08-20T05:09:03;15.75;;;7.05;;
55728;SDS011;41633;39.720;2.910;2023-08-20T05:11:30;14.85;;;7.35;;
55728;SDS011;41633;39.720;2.910;2023-08-20T05:13:58;13.93;;;7.55;;
55728;SDS011;41633;39.720;2.910;2023-08-20T05:16:24;16.75;;;7.30;;
55728;SDS011;41633;39.720;2.910;2023-08-20T05:18:50;16.95;;;7.25;;
55728;SDS011;41633;39.720;2.910;2023-08-20T05:21:20;19.05;;;8.15;;
55728;SDS011;41633;39.720;2.910;2023-08-20T05:23:46;18.17;;;7.25;;
55728;SDS011;41633;39.720;2.910;2023-08-20T05:26:12;18.73;;;7.82;;
55728;SDS011;41633;39.720;2.910;2023-08-20T05:28:38;16.48;;;8.20;;
55728;SDS011;41633;39.720;2.910;2023-08-20T05:31:05;14.73;;;7.32;;
55728;SDS011;41633;39.720;2.910;2023-08-20T05:33:31;15.85;;;7.18;;
55728;SDS011;41633;39.720;2.910;2023-08-20T05:35:58;16.42;;;6.90;;
55728;SDS011;41633;39.720;2.910;2023-08-20T05:38:27;15.50;;;6.68;;
55728;SDS011;41633;39.720;2.910;2023-08-20T05:40:53;15.88;;;6.97;;
55728;SDS011;41633;39.720;2.910;2023-08-20T05:43:19;13.35;;;6.35;;
55728;SDS011;41633;39.720;2.910;2023-08-20T05:45:46;16.40;;;6.60;;
55728;SDS011;41633;39.720;2.910;2023-08-20T05:48:12;15.48;;;6.30;;
55728;SDS011;41633;39.720;2.910;2023-08-20T05:50:38;18.75;;;6.25;;
55728;SDS011;41633;39.720;2.910;2023-08-20T05:53:05;16.85;;;5.95;;
55728;SDS011;41633;39.720;2.910;2023-08-20T05:55:31;15.77;;;5.28;;
55728;SDS011;41633;39.720;2.910;2023-08-20T05:57:57;17.10;;;5.35;;
55728;SDS011;41633;39.720;2.910;2023-08-20T06:00:23;11.63;;;4.70;;
55728;SDS011;41633;39.720;2.910;2023-08-20T06:02:49;15.32;;;5.10;;
55728;SDS011;41633;39.720;2.910;2023-08-20T06:05:16;13.20;;;5.68;;
55728;SDS011;41633;39.720;2.910;2023-08-20T06:07:42;15.95;;;6.20;;
55728;SDS011;41633;39.720;2.910;2023-08-20T06:10:08;20.67;;;6.05;;
55728;SDS011;41633;39.720;2.910;2023-08-20T06:12:34;13.38;;;5.70;;
55728;SDS011;41633;39.720;2.910;2023-08-20T06:15:01;18.23;;;6.18;;
55728;SDS011;41633;39.720;2.910;2023-08-20T06:17:27;16.40;;;6.35;;
55728;SDS011;41633;39.720;2.910;2023-08-20T06:19:53;17.00;;;6.65;;
55728;SDS011;41633;39.720;2.910;2023-08-20T06:22:19;15.27;;;6.20;;
55728;SDS011;41633;39.720;2.910;2023-08-20T06:24:45;15.07;;;6.63;;
55728;SDS011;41633;39.720;2.910;2023-08-20T06:27:11;14.25;;;6.85;;
55728;SDS011;41633;39.720;2.910;2023-08-20T06:29:37;14.20;;;7.80;;
55728;SDS011;41633;39.720;2.910;2023-08-20T06:32:04;18.38;;;7.15;;
55728;SDS011;41633;39.720;2.910;2023-08-20T06:34:34;16.20;;;7.78;;
55728;SDS011;41633;39.720;2.910;2023-08-20T06:37:01;20.08;;;8.77;;
55728;SDS011;41633;39.720;2.910;2023-08-20T06:39:27;18.13;;;9.38;;
55728;SDS011;41633;39.720;2.910;2023-08-20T06:42:00;18.63;;;9.40;;
55728;SDS011;41633;39.720;2.910;2023-08-20T06:44:29;18.17;;;9.83;;
55728;SDS011;41633;39.720;2.910;2023-08-20T06:47:15;18.52;;;9.77;;
55728;SDS011;41633;39.720;2.910;2023-08-20T06:49:45;17.08;;;9.65;;
55728;SDS011;41633;39.720;2.910;2023-08-20T06:52:14;18.42;;;9.60;;
55728;SDS011;41633;39.720;2.910;2023-08-20T06:54:47;16.30;;;9.23;;
55728;SDS011;41633;39.720;2.910;2023-08-20T06:57:17;17.00;;;9.38;;
55728;SDS011;41633;39.720;2.910;2023-08-20T06:59:46;18.50;;;9.02;;
55728;SDS011;41633;39.720;2.910;2023-08-20T07:02:24;17.65;;;7.93;;
55728;SDS011;41633;39.720;2.910;2023-08-20T07:04:51;16.83;;;8.98;;
55728;SDS011;41633;39.720;2.910;2023-08-20T07:07:20;17.90;;;8.80;;
55728;SDS011;41633;39.720;2.910;2023-08-20T07:09:58;17.40;;;8.77;;
55728;SDS011;41633;39.720;2.910;2023-08-20T07:12:24;16.80;;;8.98;;
55728;SDS011;41633;39.720;2.910;2023-08-20T07:14:50;15.20;;;7.70;;
55728;SDS011;41633;39.720;2.910;2023-08-20T07:17:17;15.25;;;7.35;;
55728;SDS011;41633;39.720;2.910;2023-08-20T07:19:43;14.43;;;7.03;;
55728;SDS011;41633;39.720;2.910;2023-08-20T07:22:09;16.27;;;7.28;;
55728;SDS011;41633;39.720;2.910;2023-08-20T07:24:48;16.23;;;7.90;;
55728;SDS011;41633;39.720;2.910;2023-08-20T07:27:14;16.17;;;8.50;;
55728;SDS011;41633;39.720;2.910;2023-08-20T07:29:46;16.80;;;8.48;;
55728;SDS011;41633;39.720;2.910;2023-08-20T07:32:13;17.77;;;7.88;;
55728;SDS011;41633;39.720;2.910;2023-08-20T07:37:28;13.85;;;7.30;;
55728;SDS011;41633;39.720;2.910;2023-08-20T07:39:57;17.90;;;8.40;;
55728;SDS011;41633;39.720;2.910;2023-08-20T07:44:56;13.45;;;7.25;;
55728;SDS011;41633;39.720;2.910;2023-08-20T07:47:29;17.00;;;7.38;;
55728;SDS011;41633;39.720;2.910;2023-08-20T07:49:55;14.23;;;6.50;;
55728;SDS011;41633;39.720;2.910;2023-08-20T07:52:31;15.02;;;6.78;;
55728;SDS011;41633;39.720;2.910;2023-08-20T07:54:57;20.75;;;7.15;;
55728;SDS011;41633;39.720;2.910;2023-08-20T07:57:26;16.13;;;6.75;;
55728;SDS011;41633;39.720;2.910;2023-08-20T07:59:59;14.50;;;6.88;;
55728;SDS011;41633;39.720;2.910;2023-08-20T08:02:33;17.08;;;7.35;;
55728;SDS011;41633;39.720;2.910;2023-08-20T08:05:05;17.17;;;7.07;;
55728;SDS011;41633;39.720;2.910;2023-08-20T08:07:31;14.70;;;6.93;;
55728;SDS011;41633;39.720;2.910;2023-08-20T08:09:58;14.63;;;6.72;;
55728;SDS011;41633;39.720;2.910;2023-08-20T08:12:24;17.60;;;7.10;;
55728;SDS011;41633;39.720;2.910;2023-08-20T08:14:53;16.55;;;6.97;;
55728;SDS011;41633;39.720;2.910;2023-08-20T08:17:26;14.75;;;6.78;;
55728;SDS011;41633;39.720;2.910;2023-08-20T08:19:52;18.27;;;6.95;;
55728;SDS011;41633;39.720;2.910;2023-08-20T08:22:22;14.20;;;6.10;;
55728;SDS011;41633;39.720;2.910;2023-08-20T08:24:52;16.60;;;7.43;;
55728;SDS011;41633;39.720;2.910;2023-08-20T08:27:21;16.05;;;6.63;;
55728;SDS011;41633;39.720;2.910;2023-08-20T08:29:47;13.40;;;6.00;;
55728;SDS011;41633;39.720;2.910;2023-08-20T08:32:14;13.60;;;6.22;;
55728;SDS011;41633;39.720;2.910;2023-08-20T08:34:40;16.13;;;6.55;;
55728;SDS011;41633;39.720;2.910;2023-08-20T08:37:10;13.80;;;6.18;;
55728;SDS011;41633;39.720;2.910;2023-08-20T08:39:39;16.30;;;5.93;;
55728;SDS011;41633;39.720;2.910;2023-08-20T08:42:11;12.60;;;6.65;;
55728;SDS011;41633;39.720;2.910;2023-08-20T08:44:42;15.95;;;6.43;;
55728;SDS011;41633;39.720;2.910;2023-08-20T08:47:09;14.18;;;6.22;;
55728;SDS011;41633;39.720;2.910;2023-08-20T08:49:35;19.27;;;6.45;;
55728;SDS011;41633;39.720;2.910;2023-08-20T08:52:03;15.68;;;6.78;;
55728;SDS011;41633;39.720;2.910;2023-08-20T08:54:32;19.70;;;6.78;;
55728;SDS011;41633;39.720;2.910;2023-08-20T08:56:58;18.02;;;7.13;;
55728;SDS011;41633;39.720;2.910;2023-08-20T08:59:24;13.80;;;6.07;;
55728;SDS011;41633;39.720;2.910;2023-08-20T09:01:51;12.30;;;6.10;;
55728;SDS011;41633;39.720;2.910;2023-08-20T09:04:18;13.05;;;5.72;;
55728;SDS011;41633;39.720;2.910;2023-08-20T09:06:48;14.20;;;6.03;;
55728;SDS011;41633;39.720;2.910;2023-08-20T09:09:16;14.18;;;5.57;;
55728;SDS011;41633;39.720;2.910;2023-08-20T09:11:42;12.05;;;5.30;;
55728;SDS011;41633;39.720;2.910;2023-08-20T09:14:42;15.52;;;5.53;;
55728;SDS011;41633;39.720;2.910;2023-08-20T09:17:01;13.48;;;5.18;;
55728;SDS011;41633;39.720;2.910;2023-08-20T09:19:28;13.45;;;4.78;;
55728;SDS011;41633;39.720;2.910;2023-08-20T09:21:55;12.25;;;4.30;;
55728;SDS011;41633;39.720;2.910;2023-08-20T09:24:38;11.00;;;4.20;;
55728;SDS011;41633;39.720;2.910;2023-08-20T09:27:04;13.85;;;4.47;;
55728;SDS011;41633;39.720;2.910;2023-08-20T09:29:31;12.45;;;4.32;;
55728;SDS011;41633;39.720;2.910;2023-08-20T09:32:02;14.05;;;5.03;;
55728;SDS011;41633;39.720;2.910;2023-08-20T09:34:38;12.55;;;4.25;;
55728;SDS011;41633;39.720;2.910;2023-08-20T09:37:07;12.77;;;4.40;;
55728;SDS011;41633;39.720;2.910;2023-08-20T09:39:34;13.40;;;4.40;;
55728;SDS011;41633;39.720;2.910;2023-08-20T09:42:00;10.90;;;4.45;;
55728;SDS011;41633;39.720;2.910;2023-08-20T09:44:32;13.98;;;4.68;;
55728;SDS011;41633;39.720;2.910;2023-08-20T09:47:02;14.35;;;4.18;;
55728;SDS011;41633;39.720;2.910;2023-08-20T09:49:30;14.15;;;4.88;;
55728;SDS011;41633;39.720;2.910;2023-08-20T09:51:58;12.82;;;4.32;;
55728;SDS011;41633;39.720;2.910;2023-08-20T09:57:04;9.68;;;3.30;;
55728;SDS011;41633;39.720;2.910;2023-08-20T09:59:33;10.18;;;3.78;;
55728;SDS011;41633;39.720;2.910;2023-08-20T10:02:03;13.68;;;4.80;;
55728;SDS011;41633;39.720;2.910;2023-08-20T10:04:29;16.75;;;4.45;;
55728;SDS011;41633;39.720;2.910;2023-08-20T10:06:56;11.98;;;4.15;;
55728;SDS011;41633;39.720;2.910;2023-08-20T10:09:22;11.90;;;3.90;;
55728;SDS011;41633;39.720;2.910;2023-08-20T10:11:49;15.05;;;4.05;;
55728;SDS011;41633;39.720;2.910;2023-08-20T10:14:16;13.05;;;3.83;;
55728;SDS011;41633;39.720;2.910;2023-08-20T10:16:42;11.65;;;3.83;;
55728;SDS011;41633;39.720;2.910;2023-08-20T10:19:08;11.60;;;3.47;;
55728;SDS011;41633;39.720;2.910;2023-08-20T10:21:34;11.38;;;3.67;;
55728;SDS011;41633;39.720;2.910;2023-08-20T10:24:06;11.93;;;3.53;;
55728;SDS011;41633;39.720;2.910;2023-08-20T10:26:33;10.55;;;3.30;;
55728;SDS011;41633;39.720;2.910;2023-08-20T10:29:48;11.20;;;3.42;;
55728;SDS011;41633;39.720;2.910;2023-08-20T10:31:49;11.80;;;3.60;;
55728;SDS011;41633;39.720;2.910;2023-08-20T10:34:36;10.73;;;3.60;;
55728;SDS011;41633;39.720;2.910;2023-08-20T10:37:12;11.73;;;3.88;;
55728;SDS011;41633;39.720;2.910;2023-08-20T10:39:39;11.57;;;3.90;;
55728;SDS011;41633;39.720;2.910;2023-08-20T10:47:29;10.80;;;3.28;;
55728;SDS011;41633;39.720;2.910;2023-08-20T10:50:02;11.13;;;3.50;;
55728;SDS011;41633;39.720;2.910;2023-08-20T10:52:29;16.20;;;5.93;;
55728;SDS011;41633;39.720;2.910;2023-08-20T10:54:55;13.07;;;3.65;;
55728;SDS011;41633;39.720;2.910;2023-08-20T10:57:22;13.20;;;3.65;;
55728;SDS011;41633;39.720;2.910;2023-08-20T10:59:58;14.48;;;3.60;;
55728;SDS011;41633;39.720;2.910;2023-08-20T11:02:24;12.55;;;4.43;;
55728;SDS011;41633;39.720;2.910;2023-08-20T11:04:51;11.32;;;3.40;;
55728;SDS011;41633;39.720;2.910;2023-08-20T11:07:18;13.48;;;3.60;;
55728;SDS011;41633;39.720;2.910;2023-08-20T11:09:45;10.93;;;3.42;;
55728;SDS011;41633;39.720;2.910;2023-08-20T11:12:15;11.70;;;3.65;;
55728;SDS011;41633;39.720;2.910;2023-08-20T11:14:41;11.75;;;3.38;;
55728;SDS011;41633;39.720;2.910;2023-08-20T11:17:07;12.13;;;3.35;;
55728;SDS011;41633;39.720;2.910;2023-08-20T11:19:33;10.63;;;3.42;;
55728;SDS011;41633;39.720;2.910;2023-08-20T11:21:59;12.73;;;3.28;;
55728;SDS011;41633;39.720;2.910;2023-08-20T11:24:29;10.30;;;3.40;;
55728;SDS011;41633;39.720;2.910;2023-08-20T11:26:55;11.40;;;3.38;;
55728;SDS011;41633;39.720;2.910;2023-08-20T11:29:22;11.52;;;2.80;;
55728;SDS011;41633;39.720;2.910;2023-08-20T11:31:48;13.38;;;3.42;;
55728;SDS011;41633;39.720;2.910;2023-08-20T11:34:14;10.10;;;2.97;;
55728;SDS011;41633;39.720;2.910;2023-08-20T11:36:41;9.85;;;2.97;;
55728;SDS011;41633;39.720;2.910;2023-08-20T11:39:08;11.88;;;3.00;;
55728;SDS011;41633;39.720;2.910;2023-08-20T11:41:37;13.43;;;3.20;;
55728;SDS011;41633;39.720;2.910;2023-08-20T11:44:04;14.93;;;3.00;;
55728;SDS011;41633;39.720;2.910;2023-08-20T11:46:30;10.10;;;3.47;;
55728;SDS011;41633;39.720;2.910;2023-08-20T11:49:04;11.95;;;3.35;;
55728;SDS011;41633;39.720;2.910;2023-08-20T11:54:16;11.10;;;3.03;;
55728;SDS011;41633;39.720;2.910;2023-08-20T11:56:51;13.05;;;3.25;;
55728;SDS011;41633;39.720;2.910;2023-08-20T11:59:18;12.32;;;3.08;;
55728;SDS011;41633;39.720;2.910;2023-08-20T12:01:52;12.30;;;3.00;;
55728;SDS011;41633;39.720;2.910;2023-08-20T12:04:18;11.60;;;3.00;;
55728;SDS011;41633;39.720;2.910;2023-08-20T12:06:45;10.15;;;2.80;;
55728;SDS011;41633;39.720;2.910;2023-08-20T12:09:27;10.30;;;3.17;;
55728;SDS011;41633;39.720;2.910;2023-08-20T12:11:54;10.90;;;3.10;;
55728;SDS011;41633;39.720;2.910;2023-08-20T12:14:21;11.68;;;3.05;;
55728;SDS011;41633;39.720;2.910;2023-08-20T12:16:47;12.27;;;3.47;;
55728;SDS011;41633;39.720;2.910;2023-08-20T12:19:16;12.77;;;3.22;;
55728;SDS011;41633;39.720;2.910;2023-08-20T12:21:42;12.15;;;3.15;;
55728;SDS011;41633;39.720;2.910;2023-08-20T12:24:09;13.07;;;3.15;;
55728;SDS011;41633;39.720;2.910;2023-08-20T12:26:36;11.57;;;3.30;;
55728;SDS011;41633;39.720;2.910;2023-08-20T12:29:02;15.05;;;3.38;;
55728;SDS011;41633;39.720;2.910;2023-08-20T12:31:28;8.88;;;3.00;;
55728;SDS011;41633;39.720;2.910;2023-08-20T12:33:54;10.95;;;3.42;;
55728;SDS011;41633;39.720;2.910;2023-08-20T12:36:20;13.27;;;4.00;;
55728;SDS011;41633;39.720;2.910;2023-08-20T12:38:47;13.27;;;3.80;;
55728;SDS011;41633;39.720;2.910;2023-08-20T12:41:13;14.68;;;3.47;;
55728;SDS011;41633;39.720;2.910;2023-08-20T12:43:40;11.82;;;3.58;;
55728;SDS011;41633;39.720;2.910;2023-08-20T12:46:06;11.57;;;3.47;;
55728;SDS011;41633;39.720;2.910;2023-08-20T12:48:32;9.35;;;3.30;;
55728;SDS011;41633;39.720;2.910;2023-08-20T12:50:58;12.27;;;3.40;;
55728;SDS011;41633;39.720;2.910;2023-08-20T12:53:24;15.20;;;3.70;;
55728;SDS011;41633;39.720;2.910;2023-08-20T12:55:51;12.60;;;3.47;;
55728;SDS011;41633;39.720;2.910;2023-08-20T12:58:17;10.65;;;3.35;;
55728;SDS011;41633;39.720;2.910;2023-08-20T13:00:43;13.05;;;3.58;;
55728;SDS011;41633;39.720;2.910;2023-08-20T13:03:09;16.02;;;3.60;;
55728;SDS011;41633;39.720;2.910;2023-08-20T13:05:36;11.88;;;3.50;;
55728;SDS011;41633;39.720;2.910;2023-08-20T13:08:02;11.77;;;3.60;;
55728;SDS011;41633;39.720;2.910;2023-08-20T13:10:28;11.30;;;3.78;;
55728;SDS011;41633;39.720;2.910;2023-08-20T13:12:55;13.25;;;4.40;;
55728;SDS011;41633;39.720;2.910;2023-08-20T13:15:26;12.07;;;4.28;;
55728;SDS011;41633;39.720;2.910;2023-08-20T13:17:52;12.30;;;4.38;;
55728;SDS011;41633;39.720;2.910;2023-08-20T13:20:19;15.07;;;4.00;;
55728;SDS011;41633;39.720;2.910;2023-08-20T13:22:50;11.02;;;3.70;;
55728;SDS011;41633;39.720;2.910;2023-08-20T13:25:17;11.23;;;3.75;;
55728;SDS011;41633;39.720;2.910;2023-08-20T13:27:46;14.90;;;3.70;;
55728;SDS011;41633;39.720;2.910;2023-08-20T13:30:12;12.32;;;3.50;;
55728;SDS011;41633;39.720;2.910;2023-08-20T13:32:38;14.05;;;4.38;;
55728;SDS011;41633;39.720;2.910;2023-08-20T13:35:05;17.27;;;3.97;;
55728;SDS011;41633;39.720;2.910;2023-08-20T13:37:33;12.07;;;4.00;;
55728;SDS011;41633;39.720;2.910;2023-08-20T13:40:00;13.20;;;3.72;;
55728;SDS011;41633;39.720;2.910;2023-08-20T13:42:26;11.05;;;3.60;;
55728;SDS011;41633;39.720;2.910;2023-08-20T13:44:52;11.27;;;3.55;;
55728;SDS011;41633;39.720;2.910;2023-08-20T13:47:19;11.02;;;3.83;;
55728;SDS011;41633;39.720;2.910;2023-08-20T13:49:45;11.77;;;3.58;;
55728;SDS011;41633;39.720;2.910;2023-08-20T13:52:11;12.90;;;4.15;;
55728;SDS011;41633;39.720;2.910;2023-08-20T13:54:37;13.27;;;3.85;;
55728;SDS011;41633;39.720;2.910;2023-08-20T13:57:03;14.20;;;4.05;;
55728;SDS011;41633;39.720;2.910;2023-08-20T13:59:30;13.35;;;4.00;;
55728;SDS011;41633;39.720;2.910;2023-08-20T14:01:56;12.15;;;3.60;;
55728;SDS011;41633;39.720;2.910;2023-08-20T14:04:22;12.57;;;3.40;;
55728;SDS011;41633;39.720;2.910;2023-08-20T14:06:49;11.05;;;3.60;;
55728;SDS011;41633;39.720;2.910;2023-08-20T14:09:15;14.13;;;3.88;;
55728;SDS011;41633;39.720;2.910;2023-08-20T14:11:44;15.63;;;4.75;;
55728;SDS011;41633;39.720;2.910;2023-08-20T14:14:11;11.63;;;3.67;;
55728;SDS011;41633;39.720;2.910;2023-08-20T14:16:37;13.75;;;4.00;;
55728;SDS011;41633;39.720;2.910;2023-08-20T14:19:03;10.98;;;3.70;;
55728;SDS011;41633;39.720;2.910;2023-08-20T14:21:30;12.93;;;4.55;;
55728;SDS011;41633;39.720;2.910;2023-08-20T14:23:56;12.38;;;4.22;;
55728;SDS011;41633;39.720;2.910;2023-08-20T14:26:23;12.00;;;4.00;;
55728;SDS011;41633;39.720;2.910;2023-08-20T14:28:49;13.30;;;4.55;;
55728;SDS011;41633;39.720;2.910;2023-08-20T14:31:15;13.63;;;3.70;;
55728;SDS011;41633;39.720;2.910;2023-08-20T14:33:41;12.57;;;3.78;;
55728;SDS011;41633;39.720;2.910;2023-08-20T14:36:07;11.18;;;4.15;;
55728;SDS011;41633;39.720;2.910;2023-08-20T14:38:34;12.43;;;4.10;;
55728;SDS011;41633;39.720;2.910;2023-08-20T14:41:00;11.88;;;3.83;;
55728;SDS011;41633;39.720;2.910;2023-08-20T14:43:26;13.52;;;3.95;;
55728;SDS011;41633;39.720;2.910;2023-08-20T14:45:53;12.50;;;3.60;;
55728;SDS011;41633;39.720;2.910;2023-08-20T14:48:20;11.45;;;3.67;;
55728;SDS011;41633;39.720;2.910;2023-08-20T14:50:46;11.00;;;3.63;;
55728;SDS011;41633;39.720;2.910;2023-08-20T14:53:13;10.43;;;3.50;;
55728;SDS011;41633;39.720;2.910;2023-08-20T14:55:39;10.77;;;3.63;;